Time;durP1;ratioP1;P1;durP2;ratioP2;P2;SDS_P1;SDS_P2;PMS_P1;PMS_P2;Temp;Humidity;BMP_temperature;BMP_pressure;BME280_temperature;BME280_humidity;BME280_pressure;Samples;Min_cycle;Max_cycle;Signal;HPM_P1;HPM_P2
2023/01/01 00:00:48;;;;;;;35.72;16.73;;;15.30;99.90;;;15.59;73.52;100511.41;5096930;28;20131;-70
2023/01/01 00:03:19;;;;;;;27.35;15.27;;;15.30;99.90;;;15.52;73.60;100530.31;5097369;28;20474;-73
2023/01/01 00:05:47;;;;;;;28.83;13.85;;;15.30;99.90;;;15.58;73.64;100538.13;5096886;28;20494;-75
2023/01/01 00:08:15;;;;;;;31.75;13.38;;;15.30;99.90;;;15.49;73.82;100522.41;5097240;28;20052;-72
2023/01/01 00:10:43;;;;;;;30.90;14.43;;;15.30;99.90;;;15.41;73.74;100538.59;5097146;28;20052;-71
2023/01/01 00:13:14;;;;;;;27.70;15.05;;;15.20;99.90;;;15.39;74.16;100527.97;5097041;28;20048;-72
2023/01/01 00:15:42;;;;;;;30.63;14.82;;;15.20;99.90;;;15.38;74.19;100552.91;5097207;28;20074;-72
2023/01/01 00:18:10;;;;;;;32.95;15.45;;;15.10;99.90;;;15.34;74.54;100537.03;5097181;28;20043;-71
2023/01/01 00:20:40;;;;;;;32.28;13.32;;;15.10;99.90;;;15.33;74.59;100517.50;5078719;28;20044;-73
2023/01/01 00:23:08;;;;;;;29.08;14.27;;;15.10;99.90;;;15.24;75.16;100544.41;5096887;28;20098;-68
2023/01/01 00:25:39;;;;;;;28.25;13.80;;;15.20;99.90;;;15.43;74.95;100527.94;5096541;28;20072;-70
2023/01/01 00:28:08;;;;;;;27.70;13.32;;;15.20;99.90;;;15.46;75.16;100539.38;5078640;28;20076;-66
2023/01/01 00:30:40;;;;;;;30.10;12.43;;;15.20;99.90;;;15.43;74.87;100515.47;5096700;28;20406;-68
2023/01/01 00:33:09;;;;;;;28.58;11.70;;;15.20;99.90;;;15.43;75.00;100518.13;5096363;28;20052;-70
2023/01/01 00:35:37;;;;;;;24.63;11.30;;;15.20;99.90;;;15.50;74.83;100525.03;5096586;28;20039;-70
2023/01/01 00:38:07;;;;;;;22.13;10.68;;;15.30;99.90;;;15.45;74.40;100548.28;5096196;28;20044;-70
2023/01/01 00:40:36;;;;;;;29.40;9.57;;;15.30;99.90;;;15.46;74.42;100531.38;5096169;28;20040;-69
2023/01/01 00:43:04;;;;;;;25.15;11.48;;;15.30;99.90;;;15.44;74.28;100533.22;5078211;28;20317;-68
2023/01/01 00:45:32;;;;;;;21.58;8.85;;;15.20;99.90;;;15.48;74.06;100526.88;5096091;28;20123;-68
2023/01/01 00:48:01;;;;;;;20.90;8.98;;;15.20;99.90;;;15.50;74.26;100546.38;5096169;28;20048;-67
2023/01/01 00:50:29;;;;;;;30.98;9.27;;;15.20;99.90;;;15.44;73.64;100509.22;5096000;28;20067;-64
2023/01/01 00:52:57;;;;;;;18.42;8.77;;;15.20;99.90;;;15.43;73.55;100518.13;5096027;28;20040;-66
2023/01/01 00:55:28;;;;;;;20.80;8.00;;;15.20;99.90;;;15.48;73.38;100561.53;5096178;28;20080;-67
2023/01/01 00:57:56;;;;;;;;;;;15.30;99.90;;;15.55;73.12;100532.88;5096382;28;20136;-67
2023/01/01 01:00:25;;;;;;;28.42;8.55;;;15.30;99.90;;;15.53;72.89;100524.06;5077992;28;19924;-70
2023/01/01 01:02:53;;;;;;;24.35;8.23;;;15.30;99.90;;;15.55;72.93;100571.09;5077930;28;20387;-70
2023/01/01 01:05:22;;;;;;;20.77;8.35;;;15.30;99.90;;;15.51;73.01;100545.44;5095770;28;20089;-72
2023/01/01 01:07:50;;;;;;;18.48;7.20;;;15.30;99.90;;;15.54;72.62;100541.81;5095796;28;20087;-73
2023/01/01 01:10:21;;;;;;;26.40;8.60;;;15.30;99.90;;;15.58;72.99;100559.47;5095462;28;20040;-75
2023/01/01 01:12:50;;;;;;;21.05;7.85;;;15.30;99.90;;;15.53;72.86;100596.03;5096208;28;20051;-71
2023/01/01 01:15:20;;;;;;;23.00;8.13;;;15.30;99.90;;;15.56;73.05;100577.31;5095589;28;20497;-73
2023/01/01 01:17:48;;;;;;;20.90;8.25;;;15.30;99.90;;;15.48;73.18;100560.66;5095545;28;20086;-72
2023/01/01 01:20:16;;;;;;;20.02;8.05;;;15.30;99.90;;;15.48;73.17;100542.88;5077585;28;20043;-74
2023/01/01 01:22:45;;;;;;;24.35;7.15;;;15.30;99.90;;;15.51;73.56;100544.56;5095951;28;20049;-72
2023/01/01 01:25:13;;;;;;;18.65;7.22;;;15.30;99.90;;;15.48;73.56;100531.31;5095452;28;20039;-72
2023/01/01 01:27:41;;;;;;;16.38;7.38;;;15.30;99.90;;;15.46;73.77;100527.84;5095543;28;20078;-73
2023/01/01 01:30:12;;;;;;;18.58;6.90;;;15.20;99.90;;;15.49;73.89;100547.28;5095424;28;20525;-73
2023/01/01 01:32:40;;;;;;;;;;;15.30;99.90;;;15.49;74.09;100557.06;5096210;28;20051;-70
2023/01/01 01:35:09;;;;;;;21.45;6.80;;;15.30;99.90;;;15.47;74.22;100556.22;5095075;28;20400;-70
2023/01/01 01:37:37;;;;;;;17.98;6.97;;;15.20;99.90;;;15.39;74.30;100533.31;5094162;28;20394;-70
2023/01/01 01:40:08;;;;;;;16.33;7.07;;;15.20;99.90;;;15.48;74.61;100557.97;5095140;28;20043;-71
2023/01/01 01:42:36;;;;;;;14.35;6.15;;;15.20;99.90;;;15.43;74.69;100554.59;5095157;28;20127;-70
2023/01/01 01:45:07;;;;;;;21.08;6.90;;;15.20;99.90;;;15.49;74.79;100557.06;5095020;28;20505;-70
2023/01/01 01:47:45;;;;;;;22.38;7.55;;;15.20;99.90;;;15.46;74.82;100558.03;5094918;28;20389;-70
2023/01/01 01:50:22;;;;;;;21.30;9.23;;;15.20;99.90;;;15.44;75.07;100572.31;5095252;28;20040;-70
2023/01/01 01:53:06;;;;;;;16.20;7.55;;;15.20;99.90;;;15.51;74.87;100557.88;5095201;28;20447;-70
2023/01/01 01:55:40;;;;;;;16.70;6.40;;;15.30;99.90;;;15.55;74.74;100588.88;5094833;28;20040;-70
2023/01/01 01:58:11;;;;;;;17.33;6.43;;;15.30;99.90;;;15.63;74.63;100581.53;5076947;28;20044;-70
2023/01/01 02:00:40;;;;;;;13.63;6.35;;;15.30;99.90;;;15.64;74.24;100615.28;5095256;28;20048;-71
2023/01/01 02:03:14;;;;;;;14.68;6.38;;;15.40;99.90;;;15.54;73.65;100589.81;5094669;28;20039;-70
2023/01/01 02:05:44;;;;;;;18.73;6.70;;;15.30;99.90;;;15.54;73.75;100597.78;5095296;28;20044;-70
2023/01/01 02:08:14;;;;;;;17.98;7.55;;;15.30;99.90;;;15.44;73.50;100577.66;5093976;28;20493;-71
2023/01/01 02:10:43;;;;;;;19.60;6.65;;;15.30;99.90;;;15.54;73.46;100604.00;5095192;28;20040;-70
2023/01/01 02:13:12;;;;;;;21.40;7.53;;;15.30;99.90;;;15.56;73.05;100582.63;5094511;28;20119;-71
2023/01/01 02:15:47;;;;;;;18.10;6.50;;;15.30;99.90;;;15.52;72.80;100596.97;5094464;28;20486;-70
2023/01/01 02:18:23;;;;;;;13.40;6.32;;;15.30;99.90;;;15.45;72.56;100584.75;5094720;28;20048;-70
2023/01/01 02:20:58;;;;;;;14.05;6.05;;;15.30;99.90;;;15.47;72.63;100590.88;5094410;28;20493;-70
2023/01/01 02:23:48;;;;;;;14.35;6.28;;;15.20;99.90;;;15.51;72.65;100627.19;5094339;28;20123;-70
2023/01/01 02:26:41;;;;;;;16.48;6.45;;;15.30;99.90;;;15.41;72.15;100620.38;5094289;28;20516;-70
2023/01/01 02:29:25;;;;;;;17.17;5.90;;;15.20;99.90;;;15.42;72.44;100623.00;5076200;28;20048;-71
2023/01/01 02:32:01;;;;;;;11.38;5.68;;;15.20;99.90;;;15.41;72.52;100615.03;5094214;28;20131;-70
2023/01/01 02:34:35;;;;;;;13.65;5.63;;;15.10;99.90;;;15.32;72.22;100625.03;5094111;28;20482;-70
2023/01/01 02:37:08;;;;;;;20.20;6.50;;;15.20;99.90;;;15.38;72.28;100608.88;5094062;28;20047;-70
2023/01/01 02:39:41;;;;;;;18.15;6.40;;;15.20;99.90;;;15.39;72.32;100610.59;5094287;28;20393;-71
2023/01/01 02:42:09;;;;;;;14.32;6.03;;;15.20;99.90;;;15.31;72.49;100614.41;5092853;28;20040;-70
2023/01/01 02:44:43;;;;;;;13.80;5.68;;;15.10;99.90;;;15.34;72.51;100619.66;5093928;28;20040;-70
2023/01/01 02:47:15;;;;;;;12.27;5.93;;;15.10;99.90;;;15.42;72.78;100632.78;5093924;28;20040;-70
2023/01/01 02:49:58;;;;;;;15.02;5.72;;;15.20;99.90;;;15.40;72.83;100632.81;5094133;28;20131;-70
2023/01/01 02:52:49;;;;;;;19.08;5.93;;;15.20;99.90;;;15.35;72.90;100616.06;5094156;28;20396;-70
2023/01/01 02:55:29;;;;;;;16.33;5.97;;;15.10;99.90;;;15.35;73.03;100627.59;5093829;28;20046;-70
2023/01/01 03:01:00;;;;;;;13.90;5.95;;;15.10;99.90;;;15.37;73.14;100639.09;5075043;28;20058;-70
2023/01/01 03:03:38;;;;;;;18.05;6.85;;;15.20;99.90;;;15.38;73.21;100643.53;5092679;28;20070;-70
2023/01/01 03:06:24;;;;;;;15.05;5.82;;;15.10;99.90;;;15.38;75.01;100647.97;5093586;28;20048;-70
2023/01/01 03:09:02;;;;;;;12.93;6.05;;;15.10;99.90;;;15.19;76.66;100649.38;5093761;28;20551;-70
2023/01/01 03:11:38;;;;;;;19.90;6.90;;;15.00;99.90;;;15.20;77.35;100680.44;5094132;28;20118;-70
2023/01/01 03:14:15;;;;;;;18.42;6.35;;;15.00;99.90;;;15.16;77.76;100671.66;5093474;28;20478;-70
2023/01/01 03:16:49;;;;;;;16.20;6.45;;;14.90;99.90;;;15.11;78.03;100654.91;5093498;28;20571;-70
2023/01/01 03:19:21;;;;;;;20.77;6.28;;;14.90;99.90;;;15.09;78.27;100662.06;5092695;28;20505;-70
2023/01/01 03:21:56;;;;;;;21.42;6.25;;;14.90;99.90;;;15.15;78.42;100693.00;5093365;28;20040;-70
2023/01/01 03:24:31;;;;;;;15.55;5.82;;;14.90;99.90;;;15.19;78.91;100676.03;5093856;28;20051;-70
2023/01/01 03:27:04;;;;;;;16.67;6.03;;;14.90;99.90;;;15.04;78.76;100684.44;5093317;28;20036;-70
2023/01/01 03:29:36;;;;;;;16.45;6.25;;;14.80;99.90;;;14.95;78.95;100671.31;5093499;28;20371;-70
2023/01/01 03:32:08;;;;;;;17.42;6.65;;;14.70;99.90;;;14.80;79.13;100712.53;5092247;28;20048;-70
2023/01/01 03:34:40;;;;;;;23.08;6.05;;;14.60;99.90;;;14.84;79.39;100711.56;5093202;28;20040;-70
2023/01/01 03:37:14;;;;;;;13.73;5.10;;;14.60;99.90;;;14.84;79.23;100708.88;5093398;28;20410;-71
2023/01/01 03:39:49;;;;;;;12.88;4.50;;;14.60;99.90;;;14.73;78.54;100704.75;5093195;28;20497;-70
2023/01/01 03:42:25;;;;;;;12.65;5.05;;;14.50;99.90;;;14.71;78.47;100722.53;5093397;28;20443;-70
2023/01/01 03:45:02;;;;;;;13.60;5.60;;;14.50;99.90;;;14.66;78.53;100708.44;5093307;28;20040;-70
2023/01/01 03:47:33;;;;;;;10.82;4.70;;;14.40;99.90;;;14.02;78.51;100602.59;5093116;28;20127;-71
2023/01/01 03:50:03;;;;;;;15.35;4.80;;;14.40;99.90;;;14.53;78.30;100709.63;5093031;28;20127;-70
2023/01/01 03:52:46;;;;;;;11.90;4.75;;;14.30;99.90;;;14.50;78.88;100717.72;5093498;28;20123;-70
2023/01/01 03:55:22;;;;;;;12.88;4.65;;;14.30;99.90;;;14.41;79.32;100705.47;5093333;28;20048;-70
2023/01/01 03:57:58;;;;;;;12.98;5.22;;;14.20;99.90;;;14.50;79.25;100717.72;5093047;28;20486;-70
2023/01/01 04:00:33;;;;;;;14.52;4.95;;;14.30;99.90;;;14.42;79.85;100731.16;5093231;28;20066;-70
2023/01/01 04:03:07;;;;;;;15.60;5.28;;;14.20;99.90;;;14.31;80.30;100704.81;5093257;28;20448;-70
2023/01/01 04:05:39;;;;;;;19.90;6.15;;;14.20;99.90;;;14.32;80.93;100757.09;5092953;28;20044;-70
2023/01/01 04:08:09;;;;;;;17.17;5.68;;;14.10;99.90;;;14.32;81.08;100745.59;5092799;28;20048;-70
2023/01/01 04:10:42;;;;;;;21.02;6.20;;;14.10;99.90;;;14.22;81.19;100744.91;5092878;28;20040;-70
2023/01/01 04:13:12;;;;;;;14.95;5.22;;;14.00;99.90;;;14.19;81.32;100741.41;5092842;28;20044;-70
2023/01/01 04:15:45;;;;;;;15.80;5.80;;;14.00;99.90;;;14.26;81.57;100751.03;5093039;28;20048;-70
2023/01/01 04:18:15;;;;;;;23.88;6.32;;;14.00;99.90;;;13.83;81.55;100691.63;5092769;28;20044;-70
2023/01/01 04:20:43;;;;;;;17.95;5.32;;;14.00;99.90;;;14.19;82.06;100765.34;5093026;28;20068;-70
2023/01/01 04:23:11;;;;;;;19.23;5.38;;;13.90;99.90;;;14.30;82.07;100769.56;5074871;28;20036;-70
2023/01/01 04:25:40;;;;;;;19.75;5.63;;;14.00;99.90;;;14.27;82.17;100784.69;5074825;28;20071;-70
2023/01/01 04:28:08;;;;;;;21.58;6.70;;;14.00;99.90;;;14.21;82.36;100788.34;5091651;28;20508;-70
2023/01/01 04:30:36;;;;;;;14.55;5.68;;;14.00;99.90;;;14.20;82.13;100783.06;5092873;28;20064;-70
2023/01/01 04:33:04;;;;;;;23.83;5.55;;;13.90;99.90;;;14.21;82.54;100791.00;5096468;28;20563;-70
2023/01/01 04:35:34;;;;;;;21.58;5.70;;;14.00;99.90;;;14.16;82.52;100803.53;5096409;28;20047;-70
2023/01/01 04:38:02;;;;;;;14.27;6.10;;;13.90;99.90;;;14.16;82.96;100813.28;5096483;28;20090;-70
2023/01/01 04:40:30;;;;;;;15.05;5.43;;;13.90;99.90;;;14.13;82.99;100802.72;5096682;28;20052;-70
2023/01/01 04:42:59;;;;;;;16.40;5.78;;;13.90;99.90;;;14.12;83.30;100807.16;5096284;28;20052;-70
2023/01/01 04:45:27;;;;;;;18.67;6.20;;;13.90;99.90;;;14.13;83.03;100816.88;5078327;28;20492;-70
2023/01/01 04:47:56;;;;;;;18.67;5.53;;;13.90;99.90;;;14.06;82.87;100806.41;5096403;28;20132;-70
2023/01/01 04:50:24;;;;;;;18.08;6.13;;;13.80;99.90;;;14.07;82.75;100808.16;5096069;28;20047;-70
2023/01/01 04:52:54;;;;;;;16.00;5.60;;;13.80;99.90;;;14.14;82.56;100799.16;5096084;28;20047;-70
2023/01/01 04:55:22;;;;;;;17.47;6.20;;;13.90;99.90;;;14.11;82.39;100813.38;5095940;28;20060;-71
2023/01/01 04:57:51;;;;;;;14.15;5.80;;;13.90;99.90;;;14.13;82.15;100837.31;5078168;28;20067;-70
2023/01/01 05:00:21;;;;;;;16.95;5.78;;;13.90;99.90;;;14.09;82.14;100817.00;5096173;28;20374;-70
2023/01/01 05:02:50;;;;;;;;;;;13.90;99.90;;;14.10;81.92;100834.69;5096328;28;20070;-70
2023/01/01 05:05:18;;;;;;;20.35;6.38;;;13.80;99.90;;;14.03;81.82;100827.75;5095862;28;19920;-71
2023/01/01 05:07:46;;;;;;;21.90;6.60;;;13.80;99.90;;;14.12;81.67;100839.09;5095663;28;20086;-70
2023/01/01 05:10:16;;;;;;;17.45;5.75;;;13.80;99.90;;;14.02;81.54;100839.28;5095712;28;20044;-70
2023/01/01 05:12:45;;;;;;;22.00;5.93;;;13.80;99.90;;;13.91;81.42;100827.97;5077946;28;20533;-71
2023/01/01 05:15:13;;;;;;;13.57;5.88;;;13.70;99.90;;;13.98;81.33;100842.91;5095686;28;20310;-70
2023/01/01 05:17:41;;;;;;;21.48;6.07;;;13.70;99.90;;;14.01;81.31;100834.88;5095891;28;20044;-70
2023/01/01 05:20:11;;;;;;;21.80;5.93;;;13.70;99.90;;;14.01;81.16;100818.91;5077916;28;20040;-70
2023/01/01 05:22:39;;;;;;;21.52;6.35;;;13.70;99.90;;;14.02;80.74;100829.53;5095506;28;20044;-70
2023/01/01 05:25:08;;;;;;;23.25;6.85;;;13.70;99.90;;;13.98;80.63;100829.59;5095460;28;20055;-70
2023/01/01 05:27:38;;;;;;;17.40;5.93;;;13.70;99.90;;;13.98;80.94;100842.91;5096005;28;20044;-70
2023/01/01 05:30:08;;;;;;;20.10;6.82;;;13.70;99.90;;;13.89;80.69;100851.94;5077177;28;20051;-70
2023/01/01 05:32:37;;;;;;;18.70;6.95;;;13.70;99.90;;;13.93;80.53;100850.97;5077460;28;20044;-71
2023/01/01 05:35:07;;;;;;;21.38;6.18;;;13.70;99.90;;;13.96;80.80;100869.53;5077320;28;20046;-70
2023/01/01 05:37:35;;;;;;;18.25;5.53;;;13.70;99.90;;;13.95;80.59;100866.91;5095182;28;20067;-70
2023/01/01 05:40:05;;;;;;;19.05;5.72;;;13.70;99.90;;;13.97;80.55;100886.38;5095174;28;20047;-70
2023/01/01 05:42:34;;;;;;;15.55;5.35;;;13.70;99.90;;;13.87;80.95;100871.47;5094235;28;20048;-70
2023/01/01 05:45:05;;;;;;;19.58;5.55;;;13.60;99.90;;;13.92;81.17;100882.91;5095082;28;20078;-70
2023/01/01 05:47:34;;;;;;;16.10;6.13;;;13.60;99.90;;;13.77;81.46;100899.13;5077244;28;20440;-70
2023/01/01 05:50:04;;;;;;;18.63;5.70;;;13.60;99.90;;;13.70;81.57;100897.47;5077028;28;20063;-70
2023/01/01 05:52:32;;;;;;;20.73;6.20;;;13.50;99.90;;;13.72;81.57;100891.25;5095227;28;20040;-70
2023/01/01 05:55:01;;;;;;;23.45;6.45;;;13.50;99.90;;;13.80;81.57;100888.44;5095112;28;20047;-70
2023/01/01 05:57:29;;;;;;;21.55;6.35;;;13.50;99.90;;;13.74;81.55;100881.47;5094805;28;20114;-70
2023/01/01 05:59:57;;;;;;;25.05;6.30;;;13.50;99.90;;;13.81;81.56;100907.03;5094753;28;20062;-70
2023/01/01 06:02:30;;;;;;;22.27;6.32;;;13.50;99.90;;;13.78;81.69;100895.56;5094945;28;20546;-70
2023/01/01 06:04:58;;;;;;;21.20;6.07;;;13.50;99.90;;;13.81;81.33;100895.50;5094713;28;20044;-70
2023/01/01 06:07:27;;;;;;;21.92;6.43;;;13.50;99.90;;;13.69;81.57;100917.84;5095098;28;20466;-70
2023/01/01 06:09:55;;;;;;;27.85;6.28;;;13.50;99.90;;;13.65;81.95;100912.59;5094539;28;20406;-71
2023/01/01 06:12:24;;;;;;;20.85;5.97;;;13.50;99.90;;;13.80;81.84;100920.34;5094827;28;20071;-70
2023/01/01 06:14:52;;;;;;;21.00;6.40;;;13.50;99.90;;;13.23;81.92;100838.00;5095066;28;20057;-70
2023/01/01 06:17:20;;;;;;;21.95;5.95;;;13.50;99.90;;;13.79;82.23;100921.25;5094679;28;20051;-70
2023/01/01 06:19:50;;;;;;;30.42;5.70;;;13.50;99.90;;;13.81;82.00;100932.72;5076376;28;20075;-70
2023/01/01 06:22:18;;;;;;;25.10;5.87;;;13.50;99.90;;;13.81;81.92;100938.03;5094375;28;20127;-71
2023/01/01 06:24:47;;;;;;;19.92;6.82;;;13.50;99.90;;;13.75;82.08;100927.50;5076313;28;20044;-70
2023/01/01 06:27:15;;;;;;;22.15;5.88;;;13.50;99.90;;;13.77;81.89;100939.88;5094533;28;20040;-70
2023/01/01 06:29:44;;;;;;;25.10;7.22;;;13.50;99.90;;;13.85;81.75;100947.72;5094154;28;20051;-71
2023/01/01 06:32:12;;;;;;;21.60;6.25;;;13.50;99.90;;;13.81;81.85;100946.03;5094502;28;20047;-70
2023/01/01 06:34:43;;;;;;;30.33;6.65;;;13.60;99.90;;;13.75;81.75;100943.47;5094160;28;20524;-70
2023/01/01 06:37:12;;;;;;;;;;;13.50;99.90;;;13.66;81.87;100946.28;5094539;28;20097;-70
2023/01/01 06:39:41;;;;;;;22.85;5.30;;;13.40;99.90;;;13.70;81.78;100951.53;5093058;28;19920;-70
2023/01/01 06:42:09;;;;;;;19.67;6.28;;;13.40;99.90;;;13.60;82.02;100965.84;5094023;28;20463;-70
2023/01/01 06:44:37;;;;;;;22.95;6.10;;;13.40;99.90;;;13.63;82.05;100965.81;5094189;28;20079;-70
2023/01/01 06:47:06;;;;;;;25.48;5.82;;;13.40;99.90;;;13.54;82.02;100966.84;5093906;28;20119;-70
2023/01/01 06:49:34;;;;;;;22.25;6.82;;;13.40;99.90;;;13.55;82.39;100952.63;5093771;28;20035;-70
2023/01/01 06:52:03;;;;;;;20.58;5.75;;;13.40;99.90;;;13.61;82.10;100993.31;5093778;28;20048;-70
2023/01/01 06:54:33;;;;;;;20.30;6.55;;;13.30;99.90;;;12.94;82.23;100882.69;5093614;28;20097;-70
2023/01/01 06:57:01;;;;;;;22.70;6.50;;;13.30;99.90;;;13.59;82.02;100983.56;5093932;28;20135;-70
2023/01/01 06:59:29;;;;;;;23.65;6.35;;;13.30;99.90;;;13.47;82.12;101002.34;5093650;28;20127;-70
2023/01/01 07:01:58;;;;;;;25.77;6.63;;;13.20;99.90;;;13.52;82.10;101011.16;5093595;28;20602;-70
2023/01/01 07:04:26;;;;;;;25.98;6.60;;;13.30;99.90;;;13.46;81.90;101011.25;5075702;28;20039;-70
2023/01/01 07:06:54;;;;;;;19.30;6.10;;;13.20;99.90;;;13.47;82.00;101014.78;5093541;28;20048;-70
2023/01/01 07:09:23;;;;;;;24.65;6.03;;;13.20;99.90;;;13.45;81.46;101019.25;5093254;28;20052;-70
2023/01/01 07:11:52;;;;;;;21.65;6.30;;;13.20;99.90;;;13.37;81.64;101011.38;5093361;28;20054;-70
2023/01/01 07:14:21;;;;;;;16.77;6.10;;;13.10;99.90;;;13.38;81.42;101023.75;5093402;28;20048;-70
2023/01/01 07:16:49;;;;;;;20.20;5.72;;;13.10;99.90;;;13.41;81.56;101034.31;5093424;28;20115;-70
2023/01/01 07:19:17;;;;;;;25.45;6.38;;;13.10;99.90;;;13.37;81.18;101032.63;5093562;28;20405;-70
2023/01/01 07:21:51;;;;;;;22.88;6.63;;;13.20;99.90;;;13.35;80.89;101018.50;5075436;28;20054;-71
2023/01/01 07:24:21;;;;;;;25.42;5.50;;;13.10;99.90;;;13.41;80.47;101044.94;5093370;28;20447;-70
2023/01/01 07:26:51;;;;;;;16.33;5.40;;;13.10;99.90;;;13.41;80.43;101049.41;5093635;28;20440;-71
2023/01/01 07:29:20;;;;;;;19.03;5.27;;;13.10;99.90;;;13.28;80.18;101053.09;5075624;28;20051;-71
2023/01/01 07:31:48;;;;;;;26.80;5.90;;;13.10;99.90;;;13.29;80.18;101069.03;5093418;28;20312;-71
2023/01/01 07:34:18;;;;;;;24.40;4.97;;;13.10;99.90;;;13.20;79.95;101055.00;5093191;28;20134;-71
2023/01/01 07:36:47;;;;;;;18.67;5.32;;;13.10;99.90;;;13.31;80.15;101082.31;5093382;28;20077;-70
2023/01/01 07:39:15;;;;;;;15.15;5.30;;;13.10;99.90;;;13.30;79.75;101078.75;5093390;28;20097;-70
2023/01/01 07:41:44;;;;;;;22.25;5.80;;;13.00;99.90;;;13.32;79.43;101078.72;5075228;28;20131;-70
2023/01/01 07:44:15;;;;;;;22.50;6.18;;;13.10;99.90;;;13.39;78.87;101091.06;5075265;28;20062;-70
2023/01/01 07:46:43;;;;;;;21.95;5.95;;;13.10;99.90;;;13.33;78.84;101086.72;5093388;28;20072;-70
2023/01/01 07:49:12;;;;;;;22.13;6.15;;;13.10;99.90;;;13.34;78.58;101096.41;5075185;28;20067;-69
2023/01/01 07:51:40;;;;;;;21.27;5.95;;;13.10;99.90;;;13.27;78.95;101102.72;5093329;28;20054;-69
2023/01/01 07:54:09;;;;;;;20.83;5.90;;;13.00;99.90;;;13.23;78.56;101093.03;5075104;28;20399;-68
2023/01/01 07:56:37;;;;;;;21.30;5.45;;;13.10;99.90;;;13.26;78.76;101113.34;5092950;28;20040;-69
2023/01/01 07:59:05;;;;;;;20.35;6.18;;;13.00;99.90;;;13.27;78.96;101116.00;5092813;28;20482;-69
2023/01/01 08:01:37;;;;;;;17.10;5.93;;;13.00;99.90;;;13.29;78.86;101111.53;5074837;28;20044;-69
2023/01/01 08:04:06;;;;;;;16.88;5.60;;;13.00;99.90;;;13.30;78.47;101131.88;5093131;28;20452;-69
2023/01/01 08:06:34;;;;;;;18.77;5.28;;;13.00;99.90;;;13.23;78.79;101127.56;5095049;28;20043;-69
2023/01/01 08:09:03;;;;;;;26.58;6.13;;;13.00;99.90;;;13.36;78.42;101123.84;5097299;28;20055;-71
2023/01/01 08:11:31;;;;;;;19.45;5.68;;;13.10;99.90;;;13.32;78.62;101116.81;5096795;28;20044;-71
2023/01/01 08:14:01;;;;;;;16.30;5.90;;;13.10;99.90;;;13.34;78.43;101133.63;5097115;28;20127;-72
2023/01/01 08:16:29;;;;;;;19.48;5.55;;;13.10;99.90;;;13.37;78.53;101138.91;5096906;28;20691;-71
2023/01/01 08:18:59;;;;;;;19.90;5.60;;;13.10;99.90;;;13.35;78.49;101138.06;5096592;28;20074;-73
2023/01/01 08:21:28;;;;;;;17.20;5.47;;;13.10;99.90;;;13.35;78.40;101135.41;5096666;28;20132;-70
2023/01/01 08:23:56;;;;;;;23.20;6.05;;;13.10;99.90;;;13.31;78.57;101127.47;5096865;28;20044;-71
2023/01/01 08:26:31;;;;;;;23.67;6.00;;;13.00;99.90;;;13.32;78.56;101142.50;5078681;28;20051;-70
2023/01/01 08:28:59;;;;;;;21.55;6.28;;;13.10;99.90;;;13.27;78.34;101139.03;5078682;28;20083;-69
2023/01/01 08:31:28;;;;;;;18.33;5.90;;;13.00;99.90;;;13.30;78.43;101152.25;5096364;28;20051;-70
2023/01/01 08:33:56;;;;;;;22.42;6.18;;;13.00;99.90;;;13.28;78.43;101143.41;5096372;28;20119;-69
2023/01/01 08:36:26;;;;;;;25.42;5.85;;;13.00;99.90;;;13.33;78.55;101153.13;5096922;28;20064;-69
2023/01/01 08:38:54;;;;;;;21.60;6.30;;;13.00;99.90;;;13.29;78.31;101154.06;5078453;28;20074;-69
2023/01/01 08:41:25;;;;;;;21.48;5.60;;;13.10;99.90;;;13.40;78.24;101164.53;5096585;28;20044;-68
2023/01/01 08:43:53;;;;;;;16.52;5.43;;;13.10;99.90;;;13.38;78.05;101166.34;5096547;28;20040;-68
2023/01/01 08:46:22;;;;;;;21.13;5.65;;;13.10;99.90;;;13.41;77.91;101172.50;5096740;28;20416;-69
2023/01/01 08:48:50;;;;;;;23.92;6.03;;;13.10;99.90;;;13.33;78.15;101169.06;5096230;28;20051;-68
2023/01/01 08:51:19;;;;;;;19.83;6.00;;;13.10;99.90;;;13.35;78.08;101171.69;5096166;28;20138;-68
2023/01/01 08:53:49;;;;;;;21.15;5.38;;;13.10;99.90;;;13.32;78.14;101177.91;5096084;28;20126;-67
2023/01/01 08:56:19;;;;;;;20.15;5.95;;;13.10;99.90;;;13.42;78.38;101187.56;5096031;28;20436;-68
2023/01/01 08:58:48;;;;;;;21.88;6.50;;;13.10;99.90;;;13.50;78.05;101188.34;5095937;28;20098;-68
2023/01/01 09:01:20;;;;;;;23.02;5.82;;;13.20;99.90;;;13.55;77.71;101190.94;5095940;28;20068;-68
2023/01/01 09:03:49;;;;;;;19.48;5.25;;;13.20;99.90;;;13.55;77.55;101190.94;5096092;28;20149;-72
2023/01/01 09:06:17;;;;;;;21.15;6.13;;;13.30;99.90;;;13.56;77.83;101193.59;5077940;28;20040;-70
2023/01/01 09:08:47;;;;;;;18.90;5.82;;;13.30;99.90;;;13.55;77.81;101196.25;5095769;28;20127;-70
2023/01/01 09:11:23;;;;;;;20.88;5.05;;;13.30;99.90;;;13.44;77.91;101180.44;5096013;28;20044;-70
2023/01/01 09:13:52;;;;;;;23.13;6.07;;;13.30;99.90;;;12.99;77.95;101074.66;5077844;28;20048;-69
2023/01/01 09:16:22;;;;;;;21.83;6.13;;;13.30;99.90;;;13.61;77.61;101185.56;5096099;28;20033;-73
2023/01/01 09:18:50;;;;;;;18.67;5.32;;;13.30;99.90;;;13.64;77.78;101184.66;5094153;28;20055;-69
2023/01/01 09:21:19;;;;;;;19.52;5.47;;;13.40;99.90;;;13.59;77.49;101159.00;5095526;28;20054;-70
2023/01/01 09:23:49;;;;;;;18.23;5.45;;;13.40;99.90;;;13.77;77.92;101194.22;5095722;28;20044;-70
2023/01/01 09:26:17;;;;;;;22.30;5.77;;;13.40;99.90;;;13.83;77.67;101208.34;5096247;28;20044;-69
2023/01/01 09:28:45;;;;;;;18.25;6.15;;;13.50;99.90;;;13.97;77.33;101182.47;5095277;28;20373;-69
2023/01/01 09:31:14;;;;;;;19.42;5.70;;;13.70;99.90;;;14.17;77.00;101190.16;5095499;28;20116;-71
2023/01/01 09:33:42;;;;;;;20.13;5.82;;;13.90;99.90;;;14.55;76.26;101198.50;5095201;28;20036;-69
2023/01/01 09:36:25;;;;;;;19.38;6.15;;;14.20;99.90;;;14.84;75.09;101193.59;5095211;28;20036;-68
2023/01/01 09:38:58;;;;;;;20.67;6.20;;;14.60;99.90;;;15.19;73.47;101214.31;5095170;28;20044;-68
2023/01/01 09:41:41;;;;;;;19.85;6.00;;;14.90;99.90;;;15.42;72.32;101201.47;5095326;28;20498;-76
2023/01/01 09:44:23;;;;;;;18.63;5.78;;;15.20;99.90;;;15.47;71.63;101212.03;5095074;28;20076;-69
2023/01/01 09:46:53;;;;;;;15.00;5.25;;;15.30;99.90;;;15.13;71.25;101102.50;5095063;28;20131;-68
2023/01/01 09:49:31;;;;;;;17.10;5.70;;;15.50;99.90;;;15.80;71.01;101222.94;5095552;28;20465;-68
2023/01/01 09:52:04;;;;;;;14.02;5.28;;;15.60;99.90;;;15.89;71.33;101221.88;5094850;28;20135;-68
2023/01/01 09:54:37;;;;;;;14.68;5.32;;;15.60;99.90;;;16.00;70.92;101230.53;5094832;28;20062;-68
2023/01/01 09:57:09;;;;;;;18.77;6.32;;;15.80;99.90;;;16.22;70.64;101223.81;5095167;28;20108;-68
2023/01/01 09:59:45;;;;;;;14.20;4.72;;;16.00;99.90;;;16.04;70.69;101242.91;5095123;28;20050;-67
2023/01/01 10:02:40;;;;;;;16.45;5.60;;;15.90;99.90;;;16.04;71.34;101249.13;5094972;28;20382;-68
2023/01/01 10:05:21;;;;;;;15.65;5.80;;;15.80;99.90;;;15.90;71.49;101250.28;5094677;28;20048;-71
2023/01/01 10:07:56;;;;;;;17.05;5.47;;;15.70;99.90;;;15.73;71.47;101241.75;5094722;28;20123;-69
2023/01/01 10:10:39;;;;;;;19.23;5.78;;;15.50;99.90;;;15.56;71.94;101243.88;5094843;28;20374;-70
2023/01/01 10:13:22;;;;;;;18.70;5.90;;;15.30;99.90;;;15.55;72.52;101231.44;5076795;28;20044;-71
2023/01/01 10:15:58;;;;;;;16.42;5.53;;;15.30;99.90;;;15.52;73.12;101223.50;5094808;28;20489;-70
2023/01/01 10:18:32;;;;;;;15.23;5.53;;;15.20;99.90;;;15.28;74.08;101241.66;5094449;28;20055;-71
2023/01/01 10:21:07;;;;;;;19.70;5.70;;;15.00;99.90;;;15.17;74.69;101219.66;5094705;28;20044;-70
2023/01/01 10:23:41;;;;;;;17.77;5.68;;;14.90;99.90;;;15.30;74.99;101226.53;5094427;28;20397;-71
2023/01/01 10:26:19;;;;;;;19.63;5.78;;;15.00;99.90;;;15.20;75.52;101214.28;5094327;28;20047;-70